createdAt,value
2017-07-02T00:01:43.203Z,13.97
2017-07-02T00:04:10.821Z,20.77
2017-07-02T00:06:38.395Z,15.37
2017-07-02T00:09:05.992Z,17.73
2017-07-02T00:11:34.318Z,20.13
2017-07-02T00:14:01.892Z,22.40
2017-07-02T00:16:29.485Z,18.97
2017-07-02T00:18:57.257Z,21.13
2017-07-02T00:21:24.823Z,17.57
2017-07-02T00:23:52.485Z,17.70
2017-07-02T00:26:20.814Z,22.10
2017-07-02T00:28:48.377Z,19.03
2017-07-02T00:31:15.993Z,20.50
2017-07-02T00:33:43.545Z,15.40
2017-07-02T00:36:11.967Z,14.60
2017-07-02T00:38:39.527Z,16.67
2017-07-02T00:41:07.115Z,16.50
2017-07-02T00:43:34.710Z,17.70
2017-07-02T00:46:03.037Z,21.40
2017-07-02T00:48:30.629Z,13.03
2017-07-02T00:50:58.221Z,16.27
2017-07-02T00:53:26.568Z,21.10
2017-07-02T00:55:54.134Z,15.23
2017-07-02T00:58:21.725Z,12.60
2017-07-02T01:00:49.293Z,16.10
2017-07-02T01:03:16.945Z,14.90
2017-07-02T01:05:45.354Z,17.70
2017-07-02T01:08:12.917Z,20.13
2017-07-02T01:10:40.538Z,17.43
2017-07-02T01:13:08.962Z,17.13
2017-07-02T01:15:36.535Z,18.17
2017-07-02T01:18:04.121Z,28.73
2017-07-02T01:20:31.818Z,14.10
2017-07-02T01:23:00.213Z,23.27
2017-07-02T01:25:27.799Z,21.13
2017-07-02T01:27:55.370Z,17.07
2017-07-02T01:30:22.937Z,16.90
2017-07-02T01:32:50.533Z,21.10
2017-07-02T01:35:18.886Z,21.43
2017-07-02T01:37:46.471Z,23.40
2017-07-02T01:40:14.058Z,15.07
2017-07-02T01:42:41.628Z,13.10
2017-07-02T01:45:09.242Z,19.47
2017-07-02T01:47:36.826Z,20.70
2017-07-02T01:50:05.149Z,25.40
2017-07-02T01:52:32.759Z,18.87
2017-07-02T01:55:01.157Z,21.10
2017-07-02T01:57:28.702Z,18.23
2017-07-02T01:59:56.308Z,21.73
2017-07-02T02:02:35.657Z,19.13
2017-07-02T02:05:03.242Z,21.77
2017-07-02T02:07:30.825Z,18.90
2017-07-02T02:09:59.182Z,27.63
2017-07-02T02:12:26.775Z,17.87
2017-07-02T02:14:55.126Z,21.43
2017-07-02T02:17:22.698Z,24.50
2017-07-02T02:19:50.270Z,26.00
2017-07-02T02:22:18.593Z,17.33
2017-07-02T02:24:46.182Z,18.87
2017-07-02T02:27:13.742Z,18.43
2017-07-02T02:29:41.298Z,24.03
2017-07-02T02:32:08.894Z,27.73
2017-07-02T02:34:36.462Z,21.60
2017-07-02T02:37:04.069Z,23.50
2017-07-02T02:39:31.634Z,23.30
2017-07-02T02:41:59.242Z,23.23
2017-07-02T02:44:26.810Z,25.47
2017-07-02T02:46:54.469Z,20.67
2017-07-02T02:49:22.074Z,20.93
2017-07-02T02:51:49.650Z,19.23
2017-07-02T02:54:17.239Z,16.63
2017-07-02T02:56:45.563Z,23.37
2017-07-02T02:59:13.138Z,26.00
2017-07-02T03:01:40.714Z,22.67
2017-07-02T03:04:08.315Z,24.63
2017-07-02T03:06:35.894Z,20.17
2017-07-02T03:09:03.482Z,25.77
2017-07-02T03:11:31.102Z,29.17
2017-07-02T03:13:58.655Z,24.00
2017-07-02T03:16:26.234Z,25.53
2017-07-02T03:18:53.794Z,28.17
2017-07-02T03:21:21.370Z,25.57
2017-07-02T03:23:48.940Z,33.23
2017-07-02T03:26:16.514Z,27.27
2017-07-02T03:28:44.099Z,29.80
2017-07-02T03:31:11.673Z,22.10
2017-07-02T03:33:40.077Z,23.57
2017-07-02T03:36:07.666Z,32.03
2017-07-02T03:38:35.221Z,28.57
2017-07-02T03:41:02.794Z,25.20
2017-07-02T03:43:30.391Z,27.77
2017-07-02T03:45:58.734Z,26.20
2017-07-02T03:48:26.305Z,27.03
2017-07-02T03:50:53.894Z,31.30
2017-07-02T03:53:21.474Z,27.20
2017-07-02T03:55:49.046Z,21.37
2017-07-02T03:58:16.631Z,28.33
2017-07-02T04:00:44.258Z,24.43
2017-07-02T04:03:11.830Z,25.50
2017-07-02T04:05:39.406Z,24.10
2017-07-02T04:08:06.989Z,22.40
2017-07-02T04:10:34.554Z,23.20
2017-07-02T04:13:02.135Z,22.83
2017-07-02T04:15:30.470Z,22.60
2017-07-02T04:17:58.098Z,24.53
2017-07-02T04:20:25.689Z,23.73
2017-07-02T04:22:53.252Z,25.73
2017-07-02T04:25:20.819Z,17.27
2017-07-02T04:27:48.423Z,24.10
2017-07-02T04:30:16.745Z,25.40
2017-07-02T04:32:44.322Z,19.17
2017-07-02T04:35:11.921Z,22.20
2017-07-02T04:37:39.493Z,27.43
2017-07-02T04:40:07.873Z,26.40
2017-07-02T04:42:35.549Z,30.40
2017-07-02T04:45:03.154Z,23.50
2017-07-02T04:47:30.734Z,26.73
2017-07-02T04:49:58.318Z,20.77
2017-07-02T04:52:26.658Z,22.60
2017-07-02T04:54:54.233Z,24.83
2017-07-02T04:57:21.821Z,19.97
2017-07-02T04:59:49.473Z,22.07
2017-07-02T05:02:17.817Z,22.83
2017-07-02T05:04:45.410Z,19.67
2017-07-02T05:07:13.758Z,21.70
2017-07-02T05:09:41.342Z,26.03
2017-07-02T05:12:08.929Z,23.97
2017-07-02T05:14:36.489Z,23.87
2017-07-02T05:17:04.078Z,17.33
2017-07-02T05:19:31.638Z,18.17
2017-07-02T05:21:59.283Z,26.40
2017-07-02T05:24:26.904Z,22.23
2017-07-02T05:26:54.479Z,24.00
2017-07-02T05:29:22.829Z,24.60
2017-07-02T05:31:50.413Z,28.63
2017-07-02T05:34:18.784Z,21.17
2017-07-02T05:36:46.347Z,24.20
2017-07-02T05:39:13.916Z,26.70
2017-07-02T05:41:41.515Z,24.63
2017-07-02T05:44:09.317Z,19.50
2017-07-02T05:46:36.902Z,20.90
2017-07-02T05:49:04.460Z,22.13
2017-07-02T05:51:32.866Z,23.60
2017-07-02T05:54:01.211Z,28.23
2017-07-02T05:56:29.108Z,23.60
2017-07-02T05:58:56.770Z,25.17
2017-07-02T06:01:24.330Z,27.07
2017-07-02T06:03:52.694Z,24.50
2017-07-02T06:06:21.033Z,23.77
2017-07-02T06:08:48.630Z,21.77
2017-07-02T06:11:16.178Z,30.53
2017-07-02T06:13:43.777Z,20.00
2017-07-02T06:16:11.373Z,23.00
2017-07-02T06:18:38.935Z,27.63
2017-07-02T06:21:06.534Z,20.63
2017-07-02T06:23:34.142Z,20.20
2017-07-02T06:26:01.734Z,16.63
2017-07-02T06:28:29.331Z,21.57
2017-07-02T06:30:57.665Z,13.60
2017-07-02T06:33:26.868Z,17.33
2017-07-02T06:35:54.463Z,28.77
2017-07-02T06:38:22.034Z,21.83
2017-07-02T06:40:50.384Z,18.50
2017-07-02T06:43:17.967Z,20.60
2017-07-02T06:45:46.301Z,18.33
2017-07-02T06:48:13.886Z,16.13
2017-07-02T06:50:41.468Z,21.67
2017-07-02T06:53:09.146Z,14.77
2017-07-02T06:55:36.707Z,19.30
2017-07-02T06:58:04.391Z,26.00
2017-07-02T07:00:31.933Z,16.80
2017-07-02T07:02:59.514Z,24.33
2017-07-02T07:05:27.086Z,14.53
2017-07-02T07:07:54.646Z,16.87
2017-07-02T07:10:22.218Z,25.43
2017-07-02T07:12:49.802Z,16.20
2017-07-02T07:15:17.422Z,14.17
2017-07-02T07:17:45.014Z,14.53
2017-07-02T07:20:12.618Z,16.40
2017-07-02T07:22:40.210Z,19.43
2017-07-02T07:25:07.804Z,16.30
2017-07-02T07:27:35.389Z,15.77
2017-07-02T07:30:03.723Z,13.00
2017-07-02T07:32:31.308Z,11.80
2017-07-02T07:34:58.903Z,16.37
2017-07-02T07:37:26.507Z,16.70
2017-07-02T07:39:54.073Z,16.07
2017-07-02T07:42:21.661Z,19.30
2017-07-02T07:44:49.242Z,22.23
2017-07-02T07:47:16.819Z,18.70
2017-07-02T07:49:44.430Z,20.47
2017-07-02T07:52:12.027Z,18.53
2017-07-02T07:54:40.393Z,17.47
2017-07-02T07:57:07.951Z,20.13
2017-07-02T07:59:36.127Z,18.03
2017-07-02T08:02:03.721Z,15.93
2017-07-02T08:04:31.338Z,21.50
2017-07-02T08:06:58.910Z,16.97
2017-07-02T08:09:27.295Z,18.57
2017-07-02T08:11:55.621Z,23.87
2017-07-02T08:14:23.241Z,21.03
2017-07-02T08:16:51.646Z,20.07
2017-07-02T08:19:19.237Z,25.50
2017-07-02T08:21:46.854Z,21.60
2017-07-02T08:24:14.426Z,16.67
2017-07-02T08:26:41.996Z,20.13
2017-07-02T08:29:09.582Z,20.37
2017-07-02T08:31:37.165Z,23.50
2017-07-02T08:34:04.735Z,24.37
2017-07-02T08:36:32.310Z,23.73
2017-07-02T08:39:00.020Z,25.20
2017-07-02T08:41:27.583Z,21.90
2017-07-02T08:43:55.175Z,20.93
2017-07-02T08:46:23.530Z,21.70
2017-07-02T08:48:51.113Z,21.20
2017-07-02T08:51:18.728Z,31.00
2017-07-02T08:53:46.308Z,25.10
2017-07-02T08:56:13.884Z,28.90
2017-07-02T08:58:41.502Z,27.13
2017-07-02T09:01:09.089Z,25.87
2017-07-02T09:03:36.662Z,29.30
2017-07-02T09:06:04.267Z,29.10
2017-07-02T09:08:31.870Z,30.90
2017-07-02T09:10:59.631Z,29.57
2017-07-02T09:13:27.204Z,31.50
2017-07-02T09:15:54.796Z,29.63
2017-07-02T09:18:22.423Z,34.60
2017-07-02T09:20:49.979Z,33.10
2017-07-02T09:23:17.555Z,29.90
2017-07-02T09:25:45.223Z,32.40
2017-07-02T09:28:12.791Z,30.40
2017-07-02T09:30:40.383Z,34.13
2017-07-02T09:33:08.727Z,41.00
2017-07-02T09:35:36.347Z,35.30
2017-07-02T09:38:03.951Z,38.60
2017-07-02T09:40:31.540Z,43.23
2017-07-02T09:42:59.148Z,37.20
2017-07-02T09:45:26.745Z,43.47
2017-07-02T09:47:54.372Z,33.43
2017-07-02T09:50:21.958Z,33.40
2017-07-02T09:52:49.531Z,30.03
2017-07-02T09:55:17.143Z,28.97
2017-07-02T09:57:44.716Z,30.80
2017-07-02T10:00:12.314Z,36.97
2017-07-02T10:02:39.903Z,38.50
2017-07-02T10:05:08.256Z,38.03
2017-07-02T10:07:35.818Z,40.17
2017-07-02T10:10:04.147Z,37.87
2017-07-02T10:12:31.732Z,41.93
2017-07-02T10:14:59.438Z,44.33
2017-07-02T10:17:27.021Z,44.50
2017-07-02T10:19:54.629Z,40.07
2017-07-02T10:22:22.282Z,45.63
2017-07-02T10:24:49.854Z,42.97
2017-07-02T10:27:17.433Z,45.20
2017-07-02T10:29:45.047Z,42.43
2017-07-02T10:32:12.617Z,36.53
2017-07-02T10:34:40.244Z,37.13
2017-07-02T10:37:08.600Z,38.33
2017-07-02T10:39:36.165Z,39.53
2017-07-02T10:42:04.538Z,33.63
2017-07-02T10:44:32.142Z,38.27
2017-07-02T10:46:59.730Z,35.67
2017-07-02T10:49:27.327Z,36.10
2017-07-02T10:51:54.923Z,32.13
2017-07-02T10:54:22.519Z,30.00
2017-07-02T10:56:50.112Z,28.37
2017-07-02T10:59:17.690Z,29.87
2017-07-02T11:01:45.278Z,28.60
2017-07-02T11:04:12.885Z,26.87
2017-07-02T11:06:40.514Z,27.77
2017-07-02T11:09:08.088Z,26.70
2017-07-02T11:11:35.686Z,29.17
2017-07-02T11:14:03.287Z,27.50
2017-07-02T11:16:30.914Z,31.77
2017-07-02T11:18:59.267Z,31.87
2017-07-02T11:21:26.856Z,35.50
2017-07-02T11:23:55.253Z,37.67
2017-07-02T11:26:22.849Z,40.73
2017-07-02T11:28:50.469Z,37.33
2017-07-02T11:31:18.026Z,36.43
2017-07-02T11:33:45.672Z,38.63
2017-07-02T11:36:13.287Z,39.17
2017-07-02T11:38:40.867Z,37.30
2017-07-02T11:41:08.462Z,43.00
2017-07-02T11:43:36.848Z,40.10
2017-07-02T11:46:04.418Z,37.50
2017-07-02T11:48:32.013Z,39.07
2017-07-02T11:51:01.463Z,38.30
2017-07-02T11:53:29.074Z,43.63
2017-07-02T11:55:56.690Z,37.60
2017-07-02T11:58:25.087Z,38.83
2017-07-02T12:00:52.683Z,39.73
2017-07-02T12:03:20.295Z,35.37
2017-07-02T12:05:51.719Z,38.33
2017-07-02T12:08:20.269Z,36.60
2017-07-02T12:10:47.878Z,36.53
2017-07-02T12:13:15.463Z,37.63
2017-07-02T12:15:43.054Z,37.67
2017-07-02T12:18:10.626Z,42.00
2017-07-02T12:20:38.203Z,39.50
2017-07-02T12:23:05.784Z,35.30
2017-07-02T12:25:33.340Z,35.23
2017-07-02T12:28:01.113Z,38.03
2017-07-02T12:30:28.810Z,35.93
2017-07-02T12:32:56.470Z,39.30
2017-07-02T12:35:24.039Z,36.23
2017-07-02T12:37:51.622Z,34.30
2017-07-02T12:40:19.206Z,28.97
2017-07-02T12:42:46.789Z,32.40
2017-07-02T12:45:15.132Z,34.67
2017-07-02T12:47:42.719Z,36.00
2017-07-02T12:50:10.305Z,34.93
2017-07-02T12:52:38.690Z,30.53
2017-07-02T12:55:07.050Z,30.07
2017-07-02T12:57:34.623Z,33.27
2017-07-02T13:00:02.980Z,29.33
2017-07-02T13:02:30.570Z,28.23
2017-07-02T13:04:58.193Z,28.83
2017-07-02T13:07:25.787Z,24.47
2017-07-02T13:09:54.126Z,24.33
2017-07-02T13:12:21.787Z,24.70
2017-07-02T13:14:49.354Z,24.93
2017-07-02T13:17:16.933Z,25.63
2017-07-02T13:19:44.542Z,25.63
2017-07-02T13:22:12.114Z,25.10
2017-07-02T13:24:39.681Z,22.80
2017-07-02T13:27:07.301Z,23.37
2017-07-02T13:29:36.486Z,22.20
2017-07-02T13:32:04.182Z,20.77
2017-07-02T13:34:38.088Z,23.03
2017-07-02T13:37:06.361Z,19.73
2017-07-02T13:39:37.835Z,19.00
2017-07-02T13:42:06.267Z,19.70
2017-07-02T13:44:34.735Z,16.70
2017-07-02T13:47:05.578Z,15.10
2017-07-02T13:49:33.782Z,19.83
2017-07-02T13:52:01.421Z,17.13
2017-07-02T13:54:29.824Z,18.33
2017-07-02T13:56:57.528Z,22.70
2017-07-02T13:59:25.119Z,13.77
2017-07-02T14:01:52.768Z,16.13
2017-07-02T14:04:20.391Z,16.23
2017-07-02T14:06:48.071Z,16.43
2017-07-02T14:09:16.005Z,14.73
2017-07-02T14:11:43.697Z,13.30
2017-07-02T14:14:11.307Z,14.50
2017-07-02T14:16:39.189Z,17.00
2017-07-02T14:19:07.518Z,13.13
2017-07-02T14:21:35.153Z,11.50
2017-07-02T14:24:02.815Z,11.10
2017-07-02T14:26:30.386Z,10.83
2017-07-02T14:28:57.982Z,10.10
2017-07-02T14:31:25.639Z,10.83
2017-07-02T14:33:53.251Z,11.57
2017-07-02T14:36:20.874Z,9.80
2017-07-02T14:38:48.507Z,15.37
2017-07-02T14:41:16.093Z,9.57
2017-07-02T14:43:43.831Z,10.43
2017-07-02T14:46:12.157Z,10.43
2017-07-02T14:48:39.709Z,9.00
2017-07-02T14:51:07.303Z,10.00
2017-07-02T14:53:34.905Z,9.80
2017-07-02T14:56:02.516Z,10.90
2017-07-02T15:01:04.065Z,11.97
2017-07-02T15:03:31.654Z,10.07
2017-07-02T15:06:00.005Z,12.00
2017-07-02T15:08:27.607Z,10.20
2017-07-02T15:10:55.190Z,11.10
2017-07-02T15:13:22.802Z,12.30
2017-07-02T15:15:51.249Z,11.27
2017-07-02T15:18:18.833Z,14.70
2017-07-02T15:20:46.438Z,12.27
2017-07-02T15:23:14.015Z,13.07
2017-07-02T15:25:41.608Z,13.57
2017-07-02T15:28:09.206Z,13.30
2017-07-02T15:30:36.757Z,11.30
2017-07-02T15:33:04.373Z,11.90
2017-07-02T15:35:31.948Z,9.73
2017-07-02T15:37:59.527Z,9.40
2017-07-02T15:40:27.135Z,9.40
2017-07-02T15:42:54.697Z,8.13
2017-07-02T15:45:22.382Z,9.13
2017-07-02T15:47:49.966Z,9.87
2017-07-02T15:50:18.075Z,8.20
2017-07-02T15:52:45.641Z,10.27
2017-07-02T15:55:13.230Z,10.87
2017-07-02T15:57:40.826Z,7.90
2017-07-02T16:00:08.426Z,6.10
2017-07-02T16:02:36.019Z,5.10
2017-07-02T16:05:03.578Z,4.90
2017-07-02T16:07:31.225Z,5.30
2017-07-02T16:09:58.794Z,7.90
2017-07-02T16:12:26.444Z,6.00
2017-07-02T16:14:54.086Z,7.40
2017-07-02T16:17:21.660Z,4.37
2017-07-02T16:19:49.246Z,10.80
2017-07-02T16:22:16.864Z,7.30
2017-07-02T16:24:44.558Z,4.93
2017-07-02T16:27:12.117Z,7.63
2017-07-02T16:29:39.734Z,5.57
2017-07-02T16:32:08.102Z,5.60
2017-07-02T16:34:35.680Z,4.10
2017-07-02T16:37:04.074Z,5.20
2017-07-02T16:39:32.411Z,6.67
2017-07-02T16:42:00.000Z,5.60
2017-07-02T16:44:27.569Z,10.13
2017-07-02T16:46:55.163Z,5.60
2017-07-02T16:49:23.603Z,7.00
2017-07-02T16:51:51.205Z,7.03
2017-07-02T16:54:18.769Z,5.93
2017-07-02T16:56:46.361Z,4.23
2017-07-02T16:59:13.960Z,5.40
2017-07-02T17:01:42.364Z,5.00
2017-07-02T17:04:09.921Z,5.20
2017-07-02T17:06:37.486Z,6.63
2017-07-02T17:09:05.101Z,4.20
2017-07-02T17:11:32.682Z,7.40
2017-07-02T17:14:00.287Z,5.67
2017-07-02T17:16:27.899Z,7.20
2017-07-02T17:18:55.463Z,8.63
2017-07-02T17:21:23.055Z,8.37
2017-07-02T17:23:50.776Z,7.03
2017-07-02T17:26:18.346Z,5.80
2017-07-02T17:28:46.699Z,8.67
2017-07-02T17:31:14.269Z,4.63
2017-07-02T17:33:41.867Z,6.23
2017-07-02T17:36:09.446Z,4.50
2017-07-02T17:38:37.576Z,7.43
2017-07-02T17:41:05.160Z,9.50
2017-07-02T17:43:32.804Z,8.43
2017-07-02T17:46:00.386Z,6.20
2017-07-02T17:48:27.974Z,5.60
2017-07-02T17:50:55.684Z,7.50
2017-07-02T17:53:23.258Z,7.23
2017-07-02T17:55:51.630Z,7.23
2017-07-02T17:58:19.988Z,8.40
2017-07-02T18:00:47.606Z,4.10
2017-07-02T18:03:15.171Z,5.20
2017-07-02T18:05:42.777Z,9.97
2017-07-02T18:08:10.380Z,5.90
2017-07-02T18:10:37.968Z,4.00
2017-07-02T18:13:05.570Z,4.50
2017-07-02T18:15:33.194Z,6.10
2017-07-02T18:18:00.793Z,5.10
2017-07-02T18:20:28.353Z,4.57
2017-07-02T18:22:56.702Z,5.83
2017-07-02T18:25:24.295Z,4.60
2017-07-02T18:27:51.890Z,4.43
2017-07-02T18:30:19.481Z,5.53
2017-07-02T18:32:47.347Z,4.70
2017-07-02T18:35:15.006Z,6.93
2017-07-02T18:37:42.590Z,4.13
2017-07-02T18:40:10.219Z,4.10
2017-07-02T18:42:37.923Z,6.47
2017-07-02T18:45:05.515Z,6.00
2017-07-02T18:47:33.895Z,4.67
2017-07-02T18:50:01.478Z,6.17
2017-07-02T18:52:29.093Z,4.93
2017-07-02T18:54:56.699Z,9.27
2017-07-02T18:57:24.278Z,5.23
2017-07-02T18:59:52.507Z,7.30
2017-07-02T19:02:20.099Z,5.77
2017-07-02T19:04:47.701Z,9.07
2017-07-02T19:07:15.302Z,5.80
2017-07-02T19:09:43.936Z,7.57
2017-07-02T19:12:11.527Z,8.30
2017-07-02T19:14:39.127Z,7.60
2017-07-02T19:17:06.722Z,7.37
2017-07-02T19:19:34.415Z,6.60
2017-07-02T19:22:02.028Z,7.57
2017-07-02T19:24:29.610Z,8.43
2017-07-02T19:26:57.191Z,9.00
2017-07-02T19:29:24.773Z,8.50
2017-07-02T19:31:52.385Z,6.93
2017-07-02T19:34:19.955Z,7.23
2017-07-02T19:36:48.402Z,8.13
2017-07-02T19:39:16.025Z,7.07
2017-07-02T19:41:43.579Z,8.63
2017-07-02T19:44:11.183Z,9.50
2017-07-02T19:46:38.777Z,6.43
2017-07-02T19:49:06.690Z,9.23
2017-07-02T19:51:34.287Z,9.03
2017-07-02T19:54:01.868Z,6.60
2017-07-02T19:56:29.931Z,5.13
2017-07-02T19:58:57.498Z,6.70
2017-07-02T20:01:25.111Z,5.63
2017-07-02T20:03:54.212Z,6.47
2017-07-02T20:06:22.545Z,8.60
2017-07-02T20:08:50.177Z,7.63
2017-07-02T20:11:17.774Z,5.57
2017-07-02T20:13:45.302Z,6.20
2017-07-02T20:16:12.881Z,6.47
2017-07-02T20:18:40.497Z,5.93
2017-07-02T20:21:08.133Z,4.67
2017-07-02T20:23:35.713Z,5.60
2017-07-02T20:26:04.118Z,7.50
2017-07-02T20:28:31.678Z,5.93
2017-07-02T20:30:59.282Z,9.30
2017-07-02T20:33:36.482Z,7.07
2017-07-02T20:36:04.086Z,8.97
2017-07-02T20:38:31.699Z,9.00
2017-07-02T20:40:59.290Z,8.03
2017-07-02T20:43:27.897Z,7.43
2017-07-02T20:45:55.503Z,5.23
2017-07-02T20:48:23.071Z,5.27
2017-07-02T20:50:50.677Z,7.67
2017-07-02T20:53:18.255Z,8.97
2017-07-02T20:55:45.891Z,10.83
2017-07-02T20:58:13.468Z,11.50
2017-07-02T21:00:41.026Z,9.40
2017-07-02T21:03:08.623Z,7.50
2017-07-02T21:05:36.204Z,7.77
2017-07-02T21:08:03.835Z,8.10
2017-07-02T21:10:31.453Z,9.70
2017-07-02T21:12:59.810Z,9.83
2017-07-02T21:15:27.384Z,7.87
2017-07-02T21:17:55.921Z,9.70
2017-07-02T21:20:23.478Z,5.77
2017-07-02T21:22:51.043Z,8.03
2017-07-02T21:25:18.645Z,9.67
2017-07-02T21:27:46.982Z,14.20
2017-07-02T21:30:14.554Z,8.87
2017-07-02T21:32:42.903Z,8.03
2017-07-02T21:35:10.471Z,6.40
2017-07-02T21:37:38.054Z,9.00
2017-07-02T21:40:05.649Z,13.33
2017-07-02T21:42:33.978Z,7.40
2017-07-02T21:45:01.626Z,8.10
2017-07-02T21:47:29.218Z,8.30
2017-07-02T21:49:56.798Z,9.70
2017-07-02T21:52:24.403Z,9.20
2017-07-02T21:54:51.988Z,11.20
2017-07-02T21:57:19.558Z,7.63
2017-07-02T21:59:47.242Z,7.83
2017-07-02T22:02:14.802Z,5.60
2017-07-02T22:04:42.385Z,5.20
2017-07-02T22:07:10.733Z,6.07
2017-07-02T22:09:38.306Z,10.60
2017-07-02T22:12:05.897Z,9.83
2017-07-02T22:14:34.507Z,14.10
2017-07-02T22:17:02.107Z,8.90
2017-07-02T22:19:29.697Z,6.73
2017-07-02T22:22:02.098Z,8.73
2017-07-02T22:24:30.408Z,6.80
2017-07-02T22:26:58.030Z,8.03
2017-07-02T22:29:25.608Z,4.53
2017-07-02T22:31:53.175Z,9.10
2017-07-02T22:34:20.783Z,7.27
2017-07-02T22:36:49.170Z,9.33
2017-07-02T22:39:17.515Z,8.67
2017-07-02T22:41:45.090Z,15.20
2017-07-02T22:44:12.671Z,12.53
2017-07-02T22:46:40.276Z,11.43
2017-07-02T22:49:07.875Z,11.20
2017-07-02T22:51:35.437Z,10.80
2017-07-02T22:54:03.013Z,8.77
2017-07-02T22:56:31.352Z,11.20
2017-07-02T22:58:58.918Z,7.43
2017-07-02T23:01:26.505Z,14.10
2017-07-02T23:03:54.844Z,6.87
2017-07-02T23:06:22.406Z,13.60
2017-07-02T23:08:49.985Z,9.13
2017-07-02T23:11:17.587Z,8.30
2017-07-02T23:13:45.909Z,9.30
2017-07-02T23:16:13.485Z,9.87
2017-07-02T23:18:41.082Z,15.00
2017-07-02T23:21:09.538Z,7.10
2017-07-02T23:23:37.143Z,9.53
2017-07-02T23:26:04.705Z,8.27
2017-07-02T23:28:32.279Z,10.93
2017-07-02T23:30:59.858Z,8.67
2017-07-02T23:33:27.723Z,12.50
2017-07-02T23:35:55.285Z,7.53
2017-07-02T23:38:22.869Z,8.33
2017-07-02T23:40:50.446Z,13.63
2017-07-02T23:43:18.774Z,7.07
2017-07-02T23:45:46.405Z,11.40
2017-07-02T23:48:13.966Z,13.20
2017-07-02T23:50:41.671Z,15.93
2017-07-02T23:53:09.318Z,4.90
2017-07-02T23:55:36.880Z,14.73
2017-07-02T23:58:04.446Z,19.67
